sensor_id;sensor_type;location;lat;lon;timestamp;temperature;humidity
43697;DHT22;29301;47.620;19.560;2022-09-06T00:00:39;17.90;93.10
43697;DHT22;29301;47.620;19.560;2022-09-06T00:03:05;17.70;93.20
43697;DHT22;29301;47.620;19.560;2022-09-06T00:05:32;17.70;93.00
43697;DHT22;29301;47.620;19.560;2022-09-06T00:07:59;17.90;92.40
43697;DHT22;29301;47.620;19.560;2022-09-06T00:10:27;18.20;91.90
43697;DHT22;29301;47.620;19.560;2022-09-06T00:12:53;18.30;91.00
43697;DHT22;29301;47.620;19.560;2022-09-06T00:15:19;18.50;91.10
43697;DHT22;29301;47.620;19.560;2022-09-06T00:17:45;18.50;91.50
43697;DHT22;29301;47.620;19.560;2022-09-06T00:20:11;18.60;91.70
43697;DHT22;29301;47.620;19.560;2022-09-06T00:22:37;18.50;91.90
43697;DHT22;29301;47.620;19.560;2022-09-06T00:25:04;18.50;91.80
43697;DHT22;29301;47.620;19.560;2022-09-06T00:27:31;18.50;91.80
43697;DHT22;29301;47.620;19.560;2022-09-06T00:29:57;18.60;91.80
43697;DHT22;29301;47.620;19.560;2022-09-06T00:32:23;18.50;91.60
43697;DHT22;29301;47.620;19.560;2022-09-06T00:34:48;18.50;91.60
43697;DHT22;29301;47.620;19.560;2022-09-06T00:37:14;18.60;91.60
43697;DHT22;29301;47.620;19.560;2022-09-06T00:39:40;18.50;91.40
43697;DHT22;29301;47.620;19.560;2022-09-06T00:42:10;18.50;91.40
43697;DHT22;29301;47.620;19.560;2022-09-06T00:44:36;18.50;91.20
43697;DHT22;29301;47.620;19.560;2022-09-06T00:47:03;18.50;91.20
43697;DHT22;29301;47.620;19.560;2022-09-06T00:49:51;18.40;91.20
43697;DHT22;29301;47.620;19.560;2022-09-06T00:52:18;18.40;91.30
43697;DHT22;29301;47.620;19.560;2022-09-06T00:54:45;18.40;91.30
43697;DHT22;29301;47.620;19.560;2022-09-06T00:57:13;18.00;91.60
43697;DHT22;29301;47.620;19.560;2022-09-06T00:59:40;17.90;92.30
43697;DHT22;29301;47.620;19.560;2022-09-06T01:02:07;18.00;92.30
43697;DHT22;29301;47.620;19.560;2022-09-06T01:04:35;18.00;92.00
43697;DHT22;29301;47.620;19.560;2022-09-06T01:30:08;18.10;90.80
43697;DHT22;29301;47.620;19.560;2022-09-06T01:38:03;17.70;91.70
43697;DHT22;29301;47.620;19.560;2022-09-06T01:40:30;17.20;92.20
43697;DHT22;29301;47.620;19.560;2022-09-06T01:43:04;17.20;93.20
43697;DHT22;29301;47.620;19.560;2022-09-06T01:51:14;17.30;93.20
43697;DHT22;29301;47.620;19.560;2022-09-06T02:08:00;17.20;93.40
43697;DHT22;29301;47.620;19.560;2022-09-06T02:10:51;17.30;93.30
43697;DHT22;29301;47.620;19.560;2022-09-06T02:13:21;17.40;92.90
43697;DHT22;29301;47.620;19.560;2022-09-06T02:16:07;17.30;92.70
43697;DHT22;29301;47.620;19.560;2022-09-06T02:21:03;17.50;92.30
43697;DHT22;29301;47.620;19.560;2022-09-06T02:23:34;17.40;92.00
43697;DHT22;29301;47.620;19.560;2022-09-06T02:26:13;17.40;91.80
43697;DHT22;29301;47.620;19.560;2022-09-06T02:28:41;17.40;92.10
43697;DHT22;29301;47.620;19.560;2022-09-06T02:31:28;17.40;92.10
43697;DHT22;29301;47.620;19.560;2022-09-06T02:33:54;17.40;92.10
43697;DHT22;29301;47.620;19.560;2022-09-06T02:36:20;17.40;92.50
43697;DHT22;29301;47.620;19.560;2022-09-06T02:38:46;17.30;92.90
43697;DHT22;29301;47.620;19.560;2022-09-06T02:41:14;17.20;93.20
43697;DHT22;29301;47.620;19.560;2022-09-06T02:43:41;17.20;93.40
43697;DHT22;29301;47.620;19.560;2022-09-06T02:46:07;17.20;93.40
43697;DHT22;29301;47.620;19.560;2022-09-06T02:48:32;17.30;93.20
43697;DHT22;29301;47.620;19.560;2022-09-06T02:51:02;17.30;93.50
43697;DHT22;29301;47.620;19.560;2022-09-06T02:53:28;17.30;93.50
43697;DHT22;29301;47.620;19.560;2022-09-06T02:55:53;17.30;93.30
43697;DHT22;29301;47.620;19.560;2022-09-06T02:58:19;17.30;93.20
43697;DHT22;29301;47.620;19.560;2022-09-06T03:00:45;17.30;93.20
43697;DHT22;29301;47.620;19.560;2022-09-06T03:03:10;17.30;93.30
43697;DHT22;29301;47.620;19.560;2022-09-06T03:05:36;17.30;93.30
43697;DHT22;29301;47.620;19.560;2022-09-06T03:08:02;17.30;93.30
43697;DHT22;29301;47.620;19.560;2022-09-06T03:10:28;17.20;93.30
43697;DHT22;29301;47.620;19.560;2022-09-06T03:12:53;17.00;93.80
43697;DHT22;29301;47.620;19.560;2022-09-06T03:15:19;16.90;94.20
43697;DHT22;29301;47.620;19.560;2022-09-06T03:17:45;16.80;94.40
43697;DHT22;29301;47.620;19.560;2022-09-06T03:20:11;16.80;94.90
43697;DHT22;29301;47.620;19.560;2022-09-06T03:22:38;16.70;94.90
43697;DHT22;29301;47.620;19.560;2022-09-06T03:25:05;16.80;94.60
43697;DHT22;29301;47.620;19.560;2022-09-06T03:27:32;16.90;94.30
43697;DHT22;29301;47.620;19.560;2022-09-06T03:29:58;16.90;93.70
43697;DHT22;29301;47.620;19.560;2022-09-06T03:32:24;16.90;94.00
43697;DHT22;29301;47.620;19.560;2022-09-06T03:34:50;16.90;94.10
43697;DHT22;29301;47.620;19.560;2022-09-06T03:37:16;17.00;94.10
43697;DHT22;29301;47.620;19.560;2022-09-06T03:39:42;17.10;94.40
43697;DHT22;29301;47.620;19.560;2022-09-06T03:42:08;17.00;94.70
43697;DHT22;29301;47.620;19.560;2022-09-06T03:44:34;17.00;94.70
43697;DHT22;29301;47.620;19.560;2022-09-06T03:46:59;17.10;95.00
43697;DHT22;29301;47.620;19.560;2022-09-06T03:49:25;17.10;94.80
43697;DHT22;29301;47.620;19.560;2022-09-06T03:51:51;17.20;94.60
43697;DHT22;29301;47.620;19.560;2022-09-06T03:54:17;17.20;94.30
43697;DHT22;29301;47.620;19.560;2022-09-06T03:56:43;17.30;94.30
43697;DHT22;29301;47.620;19.560;2022-09-06T03:59:08;17.30;94.20
43697;DHT22;29301;47.620;19.560;2022-09-06T04:01:34;17.30;93.90
43697;DHT22;29301;47.620;19.560;2022-09-06T04:04:00;17.30;94.30
43697;DHT22;29301;47.620;19.560;2022-09-06T04:06:26;17.20;94.60
43697;DHT22;29301;47.620;19.560;2022-09-06T04:08:52;17.00;95.20
43697;DHT22;29301;47.620;19.560;2022-09-06T04:11:18;17.00;95.60
43697;DHT22;29301;47.620;19.560;2022-09-06T04:13:44;17.00;95.60
43697;DHT22;29301;47.620;19.560;2022-09-06T04:16:09;17.00;95.70
43697;DHT22;29301;47.620;19.560;2022-09-06T04:18:35;17.00;96.10
43697;DHT22;29301;47.620;19.560;2022-09-06T04:21:01;17.00;96.30
43697;DHT22;29301;47.620;19.560;2022-09-06T04:23:27;16.90;96.30
43697;DHT22;29301;47.620;19.560;2022-09-06T04:25:55;16.90;96.30
43697;DHT22;29301;47.620;19.560;2022-09-06T04:28:22;16.80;96.80
43697;DHT22;29301;47.620;19.560;2022-09-06T04:31:06;16.80;97.00
43697;DHT22;29301;47.620;19.560;2022-09-06T04:33:33;17.00;96.70
43697;DHT22;29301;47.620;19.560;2022-09-06T04:36:00;17.00;96.30
43697;DHT22;29301;47.620;19.560;2022-09-06T04:38:28;17.10;96.00
43697;DHT22;29301;47.620;19.560;2022-09-06T04:40:54;17.10;95.90
43697;DHT22;29301;47.620;19.560;2022-09-06T04:43:21;17.10;96.10
43697;DHT22;29301;47.620;19.560;2022-09-06T04:45:47;17.10;96.30
43697;DHT22;29301;47.620;19.560;2022-09-06T04:48:12;17.20;96.30
43697;DHT22;29301;47.620;19.560;2022-09-06T04:50:39;17.30;96.30
43697;DHT22;29301;47.620;19.560;2022-09-06T04:53:05;17.30;96.10
43697;DHT22;29301;47.620;19.560;2022-09-06T04:55:31;17.30;96.00
43697;DHT22;29301;47.620;19.560;2022-09-06T04:57:58;17.30;96.10
43697;DHT22;29301;47.620;19.560;2022-09-06T05:00:28;17.20;96.20
43697;DHT22;29301;47.620;19.560;2022-09-06T05:02:53;17.20;96.20
43697;DHT22;29301;47.620;19.560;2022-09-06T05:05:20;17.30;96.20
43697;DHT22;29301;47.620;19.560;2022-09-06T05:07:46;17.30;95.90
43697;DHT22;29301;47.620;19.560;2022-09-06T05:10:12;17.40;95.60
43697;DHT22;29301;47.620;19.560;2022-09-06T05:12:38;17.40;95.50
43697;DHT22;29301;47.620;19.560;2022-09-06T05:15:04;17.30;95.70
43697;DHT22;29301;47.620;19.560;2022-09-06T05:17:30;17.00;96.30
43697;DHT22;29301;47.620;19.560;2022-09-06T05:19:56;16.90;97.00
43697;DHT22;29301;47.620;19.560;2022-09-06T05:22:21;17.00;97.40
43697;DHT22;29301;47.620;19.560;2022-09-06T05:24:47;17.10;97.30
43697;DHT22;29301;47.620;19.560;2022-09-06T05:27:13;17.20;97.00
43697;DHT22;29301;47.620;19.560;2022-09-06T05:29:38;17.30;96.80
43697;DHT22;29301;47.620;19.560;2022-09-06T05:32:04;17.50;95.80
43697;DHT22;29301;47.620;19.560;2022-09-06T05:34:30;17.50;95.40
43697;DHT22;29301;47.620;19.560;2022-09-06T05:36:56;17.30;95.90
43697;DHT22;29301;47.620;19.560;2022-09-06T05:39:21;17.20;94.80
43697;DHT22;29301;47.620;19.560;2022-09-06T05:41:48;17.10;94.20
43697;DHT22;29301;47.620;19.560;2022-09-06T05:44:13;17.30;94.60
43697;DHT22;29301;47.620;19.560;2022-09-06T05:46:43;17.50;93.20
43697;DHT22;29301;47.620;19.560;2022-09-06T05:49:10;17.60;91.10
43697;DHT22;29301;47.620;19.560;2022-09-06T05:51:36;17.80;90.40
43697;DHT22;29301;47.620;19.560;2022-09-06T05:54:02;17.90;88.20
43697;DHT22;29301;47.620;19.560;2022-09-06T05:56:28;17.90;84.30
43697;DHT22;29301;47.620;19.560;2022-09-06T05:58:54;17.90;81.60
43697;DHT22;29301;47.620;19.560;2022-09-06T06:01:24;17.90;79.70
43697;DHT22;29301;47.620;19.560;2022-09-06T06:04:01;17.80;79.30
43697;DHT22;29301;47.620;19.560;2022-09-06T06:06:30;17.90;80.30
43697;DHT22;29301;47.620;19.560;2022-09-06T06:08:56;18.00;81.00
43697;DHT22;29301;47.620;19.560;2022-09-06T06:11:22;18.10;79.80
43697;DHT22;29301;47.620;19.560;2022-09-06T06:13:48;18.20;79.60
43697;DHT22;29301;47.620;19.560;2022-09-06T06:16:15;18.30;80.10
43697;DHT22;29301;47.620;19.560;2022-09-06T06:18:41;18.40;80.50
43697;DHT22;29301;47.620;19.560;2022-09-06T06:21:13;18.50;79.70
43697;DHT22;29301;47.620;19.560;2022-09-06T06:23:40;18.50;79.50
43697;DHT22;29301;47.620;19.560;2022-09-06T06:26:06;18.50;78.00
43697;DHT22;29301;47.620;19.560;2022-09-06T06:28:33;18.50;77.60
43697;DHT22;29301;47.620;19.560;2022-09-06T06:31:00;18.50;73.40
43697;DHT22;29301;47.620;19.560;2022-09-06T06:33:26;18.50;73.20
43697;DHT22;29301;47.620;19.560;2022-09-06T06:35:56;18.60;71.20
43697;DHT22;29301;47.620;19.560;2022-09-06T06:38:23;18.60;71.10
43697;DHT22;29301;47.620;19.560;2022-09-06T06:40:49;18.60;69.40
43697;DHT22;29301;47.620;19.560;2022-09-06T06:43:14;18.80;69.30
43697;DHT22;29301;47.620;19.560;2022-09-06T06:45:40;18.90;69.20
43697;DHT22;29301;47.620;19.560;2022-09-06T06:48:06;18.90;67.80
43697;DHT22;29301;47.620;19.560;2022-09-06T06:50:31;18.90;66.90
43697;DHT22;29301;47.620;19.560;2022-09-06T06:52:57;19.00;66.50
43697;DHT22;29301;47.620;19.560;2022-09-06T06:55:23;19.00;66.20
43697;DHT22;29301;47.620;19.560;2022-09-06T06:57:48;19.00;65.20
43697;DHT22;29301;47.620;19.560;2022-09-06T07:00:14;19.00;65.30
43697;DHT22;29301;47.620;19.560;2022-09-06T07:02:40;19.00;65.00
43697;DHT22;29301;47.620;19.560;2022-09-06T07:05:06;19.10;64.70
43697;DHT22;29301;47.620;19.560;2022-09-06T07:07:32;19.20;64.30
43697;DHT22;29301;47.620;19.560;2022-09-06T07:09:58;19.20;64.50
43697;DHT22;29301;47.620;19.560;2022-09-06T07:12:23;19.40;64.20
43697;DHT22;29301;47.620;19.560;2022-09-06T07:14:49;19.50;63.60
43697;DHT22;29301;47.620;19.560;2022-09-06T07:17:15;19.70;63.50
43697;DHT22;29301;47.620;19.560;2022-09-06T07:19:40;19.90;63.10
43697;DHT22;29301;47.620;19.560;2022-09-06T07:22:06;20.00;62.80
43697;DHT22;29301;47.620;19.560;2022-09-06T07:24:32;20.10;62.70
43697;DHT22;29301;47.620;19.560;2022-09-06T07:26:58;20.30;62.20
43697;DHT22;29301;47.620;19.560;2022-09-06T07:29:24;20.50;62.00
43697;DHT22;29301;47.620;19.560;2022-09-06T07:31:50;20.70;61.70
43697;DHT22;29301;47.620;19.560;2022-09-06T07:34:20;20.80;60.90
43697;DHT22;29301;47.620;19.560;2022-09-06T07:36:46;20.80;61.10
43697;DHT22;29301;47.620;19.560;2022-09-06T07:39:12;21.00;60.90
43697;DHT22;29301;47.620;19.560;2022-09-06T07:41:38;21.10;60.50
43697;DHT22;29301;47.620;19.560;2022-09-06T07:44:04;21.30;60.50
43697;DHT22;29301;47.620;19.560;2022-09-06T07:46:29;21.50;60.00
43697;DHT22;29301;47.620;19.560;2022-09-06T07:48:55;21.60;59.70
43697;DHT22;29301;47.620;19.560;2022-09-06T07:51:21;21.80;59.30
43697;DHT22;29301;47.620;19.560;2022-09-06T07:53:50;21.70;58.40
43697;DHT22;29301;47.620;19.560;2022-09-06T07:56:16;21.60;58.80
43697;DHT22;29301;47.620;19.560;2022-09-06T07:58:42;21.70;58.40
43697;DHT22;29301;47.620;19.560;2022-09-06T08:03:45;21.60;58.30
43697;DHT22;29301;47.620;19.560;2022-09-06T08:06:11;21.40;58.30
43697;DHT22;29301;47.620;19.560;2022-09-06T08:08:37;21.40;58.90
43697;DHT22;29301;47.620;19.560;2022-09-06T08:11:04;21.60;59.10
43697;DHT22;29301;47.620;19.560;2022-09-06T08:13:32;21.70;58.80
43697;DHT22;29301;47.620;19.560;2022-09-06T08:15:59;21.80;58.60
43697;DHT22;29301;47.620;19.560;2022-09-06T08:18:25;22.20;58.80
43697;DHT22;29301;47.620;19.560;2022-09-06T08:20:51;22.50;58.00
43697;DHT22;29301;47.620;19.560;2022-09-06T08:23:16;22.90;57.90
43697;DHT22;29301;47.620;19.560;2022-09-06T08:25:42;23.40;57.30
43697;DHT22;29301;47.620;19.560;2022-09-06T08:28:08;23.50;56.60
43697;DHT22;29301;47.620;19.560;2022-09-06T08:30:33;23.80;56.30
43697;DHT22;29301;47.620;19.560;2022-09-06T08:33:00;24.10;55.90
43697;DHT22;29301;47.620;19.560;2022-09-06T08:35:25;24.40;55.40
43697;DHT22;29301;47.620;19.560;2022-09-06T08:37:51;24.70;54.90
43697;DHT22;29301;47.620;19.560;2022-09-06T08:40:20;24.70;53.90
43697;DHT22;29301;47.620;19.560;2022-09-06T08:42:46;24.40;54.10
43697;DHT22;29301;47.620;19.560;2022-09-06T08:45:16;24.40;54.20
43697;DHT22;29301;47.620;19.560;2022-09-06T08:47:44;24.20;54.30
43697;DHT22;29301;47.620;19.560;2022-09-06T08:50:10;24.30;54.30
43697;DHT22;29301;47.620;19.560;2022-09-06T09:01:17;24.50;54.40
43697;DHT22;29301;47.620;19.560;2022-09-06T09:03:44;24.20;54.00
43697;DHT22;29301;47.620;19.560;2022-09-06T09:06:11;24.20;54.40
43697;DHT22;29301;47.620;19.560;2022-09-06T09:11:22;24.80;54.30
43697;DHT22;29301;47.620;19.560;2022-09-06T09:13:52;24.40;53.80
43697;DHT22;29301;47.620;19.560;2022-09-06T09:16:20;24.00;54.80
43697;DHT22;29301;47.620;19.560;2022-09-06T09:18:48;24.20;55.00
43697;DHT22;29301;47.620;19.560;2022-09-06T09:21:21;24.30;54.90
43697;DHT22;29301;47.620;19.560;2022-09-06T09:23:53;24.30;55.20
43697;DHT22;29301;47.620;19.560;2022-09-06T09:26:20;24.20;54.80
43697;DHT22;29301;47.620;19.560;2022-09-06T09:29:13;24.10;55.30
43697;DHT22;29301;47.620;19.560;2022-09-06T09:31:45;24.50;55.50
43697;DHT22;29301;47.620;19.560;2022-09-06T09:34:32;25.00;55.10
43697;DHT22;29301;47.620;19.560;2022-09-06T09:39:42;25.00;54.40
43697;DHT22;29301;47.620;19.560;2022-09-06T09:42:08;24.70;54.00
43697;DHT22;29301;47.620;19.560;2022-09-06T09:44:40;24.50;54.60
43697;DHT22;29301;47.620;19.560;2022-09-06T09:47:28;24.50;54.50
43697;DHT22;29301;47.620;19.560;2022-09-06T09:49:55;24.40;55.10
43697;DHT22;29301;47.620;19.560;2022-09-06T09:52:29;24.70;55.30
43697;DHT22;29301;47.620;19.560;2022-09-06T09:54:59;25.20;55.00
43697;DHT22;29301;47.620;19.560;2022-09-06T09:57:25;25.30;54.10
43697;DHT22;29301;47.620;19.560;2022-09-06T09:59:55;25.20;54.50
43697;DHT22;29301;47.620;19.560;2022-09-06T10:02:37;25.50;54.60
43697;DHT22;29301;47.620;19.560;2022-09-06T10:07:52;25.90;54.10
43697;DHT22;29301;47.620;19.560;2022-09-06T10:10:26;25.90;53.90
43697;DHT22;29301;47.620;19.560;2022-09-06T10:13:11;26.10;53.80
43697;DHT22;29301;47.620;19.560;2022-09-06T10:15:39;26.50;53.80
43697;DHT22;29301;47.620;19.560;2022-09-06T10:18:05;26.80;53.60
43697;DHT22;29301;47.620;19.560;2022-09-06T10:20:44;26.60;52.80
43697;DHT22;29301;47.620;19.560;2022-09-06T10:26:14;27.00;52.40
43697;DHT22;29301;47.620;19.560;2022-09-06T10:28:42;27.10;52.40
43697;DHT22;29301;47.620;19.560;2022-09-06T10:36:24;27.50;51.80
43697;DHT22;29301;47.620;19.560;2022-09-06T10:41:41;27.80;51.70
43697;DHT22;29301;47.620;19.560;2022-09-06T10:47:13;27.90;51.20
43697;DHT22;29301;47.620;19.560;2022-09-06T10:49:45;27.80;51.40
43697;DHT22;29301;47.620;19.560;2022-09-06T10:52:18;27.50;51.80
43697;DHT22;29301;47.620;19.560;2022-09-06T10:54:45;27.10;52.30
43697;DHT22;29301;47.620;19.560;2022-09-06T10:59:54;27.10;53.20
43697;DHT22;29301;47.620;19.560;2022-09-06T11:02:58;27.40;53.10
43697;DHT22;29301;47.620;19.560;2022-09-06T11:05:34;27.10;52.80
43697;DHT22;29301;47.620;19.560;2022-09-06T11:08:04;27.30;53.00
43697;DHT22;29301;47.620;19.560;2022-09-06T11:10:41;27.30;52.90
43697;DHT22;29301;47.620;19.560;2022-09-06T11:21:20;26.50;54.20
43697;DHT22;29301;47.620;19.560;2022-09-06T11:23:52;26.80;54.40
43697;DHT22;29301;47.620;19.560;2022-09-06T11:26:28;27.10;53.90
43697;DHT22;29301;47.620;19.560;2022-09-06T11:28:57;27.40;53.80
43697;DHT22;29301;47.620;19.560;2022-09-06T11:31:28;27.50;53.50
43697;DHT22;29301;47.620;19.560;2022-09-06T11:34:08;27.70;53.30
43697;DHT22;29301;47.620;19.560;2022-09-06T11:36:38;28.00;53.00
43697;DHT22;29301;47.620;19.560;2022-09-06T11:39:09;28.10;52.60
43697;DHT22;29301;47.620;19.560;2022-09-06T11:41:40;27.90;52.30
43697;DHT22;29301;47.620;19.560;2022-09-06T11:44:08;27.90;52.30
43697;DHT22;29301;47.620;19.560;2022-09-06T11:51:42;27.70;52.50
43697;DHT22;29301;47.620;19.560;2022-09-06T11:59:22;27.40;53.30
43697;DHT22;29301;47.620;19.560;2022-09-06T12:04:21;27.40;53.50
43697;DHT22;29301;47.620;19.560;2022-09-06T12:07:19;27.30;53.50
43697;DHT22;29301;47.620;19.560;2022-09-06T12:09:44;27.40;53.40
43697;DHT22;29301;47.620;19.560;2022-09-06T12:12:10;27.30;53.20
43697;DHT22;29301;47.620;19.560;2022-09-06T12:14:56;27.40;53.50
43697;DHT22;29301;47.620;19.560;2022-09-06T12:17:23;27.30;52.90
43697;DHT22;29301;47.620;19.560;2022-09-06T12:19:54;27.10;53.40
43697;DHT22;29301;47.620;19.560;2022-09-06T12:27:57;27.60;53.30
43697;DHT22;29301;47.620;19.560;2022-09-06T12:30:36;27.80;53.20
43697;DHT22;29301;47.620;19.560;2022-09-06T12:33:08;27.80;52.90
43697;DHT22;29301;47.620;19.560;2022-09-06T12:35:35;27.60;52.90
43697;DHT22;29301;47.620;19.560;2022-09-06T12:38:03;27.30;52.80
43697;DHT22;29301;47.620;19.560;2022-09-06T12:40:53;27.00;53.00
43697;DHT22;29301;47.620;19.560;2022-09-06T12:43:22;26.80;53.70
43697;DHT22;29301;47.620;19.560;2022-09-06T12:45:50;26.70;53.90
43697;DHT22;29301;47.620;19.560;2022-09-06T12:48:30;26.60;54.00
43697;DHT22;29301;47.620;19.560;2022-09-06T12:51:08;26.70;54.40
43697;DHT22;29301;47.620;19.560;2022-09-06T12:53:38;26.90;54.30
43697;DHT22;29301;47.620;19.560;2022-09-06T12:56:07;26.90;54.10
43697;DHT22;29301;47.620;19.560;2022-09-06T12:58:34;27.00;54.10
43697;DHT22;29301;47.620;19.560;2022-09-06T13:01:08;27.10;53.90
43697;DHT22;29301;47.620;19.560;2022-09-06T13:03:42;26.80;54.00
43697;DHT22;29301;47.620;19.560;2022-09-06T13:06:11;26.90;54.10
43697;DHT22;29301;47.620;19.560;2022-09-06T13:08:47;27.10;54.10
43697;DHT22;29301;47.620;19.560;2022-09-06T13:11:16;27.40;54.00
43697;DHT22;29301;47.620;19.560;2022-09-06T13:13:48;27.50;53.70
43697;DHT22;29301;47.620;19.560;2022-09-06T13:16:24;27.70;53.50
43697;DHT22;29301;47.620;19.560;2022-09-06T13:18:50;27.70;53.20
43697;DHT22;29301;47.620;19.560;2022-09-06T13:21:33;27.70;52.90
43697;DHT22;29301;47.620;19.560;2022-09-06T13:23:59;27.70;52.90
43697;DHT22;29301;47.620;19.560;2022-09-06T13:26:36;27.60;52.80
43697;DHT22;29301;47.620;19.560;2022-09-06T13:29:09;27.70;52.80
43697;DHT22;29301;47.620;19.560;2022-09-06T13:31:35;27.70;52.60
43697;DHT22;29301;47.620;19.560;2022-09-06T13:34:01;27.40;52.30
43697;DHT22;29301;47.620;19.560;2022-09-06T13:36:29;27.50;52.50
43697;DHT22;29301;47.620;19.560;2022-09-06T13:38:56;27.30;52.30
43697;DHT22;29301;47.620;19.560;2022-09-06T13:44:17;27.30;52.20
43697;DHT22;29301;47.620;19.560;2022-09-06T13:46:43;27.40;52.40
43697;DHT22;29301;47.620;19.560;2022-09-06T13:49:08;27.50;52.50
43697;DHT22;29301;47.620;19.560;2022-09-06T13:51:36;27.50;52.50
43697;DHT22;29301;47.620;19.560;2022-09-06T13:54:11;27.40;52.30
43697;DHT22;29301;47.620;19.560;2022-09-06T13:56:37;27.30;52.40
43697;DHT22;29301;47.620;19.560;2022-09-06T13:59:07;27.20;52.50
43697;DHT22;29301;47.620;19.560;2022-09-06T14:01:37;27.20;52.70
43697;DHT22;29301;47.620;19.560;2022-09-06T14:04:04;27.20;52.50
43697;DHT22;29301;47.620;19.560;2022-09-06T14:06:30;27.30;52.90
43697;DHT22;29301;47.620;19.560;2022-09-06T14:08:56;27.30;52.80
43697;DHT22;29301;47.620;19.560;2022-09-06T14:11:23;27.30;52.90
43697;DHT22;29301;47.620;19.560;2022-09-06T14:13:49;27.30;52.60
43697;DHT22;29301;47.620;19.560;2022-09-06T14:16:14;27.10;52.70
43697;DHT22;29301;47.620;19.560;2022-09-06T14:18:40;27.00;53.00
43697;DHT22;29301;47.620;19.560;2022-09-06T14:21:06;27.00;53.20
43697;DHT22;29301;47.620;19.560;2022-09-06T14:23:32;27.10;53.30
43697;DHT22;29301;47.620;19.560;2022-09-06T14:26:00;27.20;53.20
43697;DHT22;29301;47.620;19.560;2022-09-06T14:28:27;27.30;53.30
43697;DHT22;29301;47.620;19.560;2022-09-06T14:30:53;27.40;53.20
43697;DHT22;29301;47.620;19.560;2022-09-06T14:33:19;27.30;52.80
43697;DHT22;29301;47.620;19.560;2022-09-06T14:35:46;27.20;52.80
43697;DHT22;29301;47.620;19.560;2022-09-06T14:38:12;27.00;52.80
43697;DHT22;29301;47.620;19.560;2022-09-06T14:40:38;26.90;53.10
43697;DHT22;29301;47.620;19.560;2022-09-06T14:43:05;26.70;53.40
43697;DHT22;29301;47.620;19.560;2022-09-06T14:45:35;26.50;53.70
43697;DHT22;29301;47.620;19.560;2022-09-06T14:48:02;26.50;54.20
43697;DHT22;29301;47.620;19.560;2022-09-06T14:50:28;26.50;54.30
43697;DHT22;29301;47.620;19.560;2022-09-06T14:52:55;26.30;54.40
43697;DHT22;29301;47.620;19.560;2022-09-06T14:55:21;26.30;54.90
43697;DHT22;29301;47.620;19.560;2022-09-06T14:57:48;26.30;54.90
43697;DHT22;29301;47.620;19.560;2022-09-06T15:00:15;26.30;54.90
43697;DHT22;29301;47.620;19.560;2022-09-06T15:02:41;26.30;55.00
43697;DHT22;29301;47.620;19.560;2022-09-06T15:05:08;26.40;54.80
43697;DHT22;29301;47.620;19.560;2022-09-06T15:07:34;26.40;54.60
43697;DHT22;29301;47.620;19.560;2022-09-06T15:10:00;26.40;54.70
43697;DHT22;29301;47.620;19.560;2022-09-06T15:12:27;26.50;54.70
43697;DHT22;29301;47.620;19.560;2022-09-06T15:14:53;26.50;54.80
43697;DHT22;29301;47.620;19.560;2022-09-06T15:17:18;26.50;54.70
43697;DHT22;29301;47.620;19.560;2022-09-06T15:19:44;26.60;54.50
43697;DHT22;29301;47.620;19.560;2022-09-06T15:22:10;26.60;54.40
43697;DHT22;29301;47.620;19.560;2022-09-06T15:24:35;26.60;54.40
43697;DHT22;29301;47.620;19.560;2022-09-06T15:27:01;26.70;54.30
43697;DHT22;29301;47.620;19.560;2022-09-06T15:29:28;26.60;54.30
43697;DHT22;29301;47.620;19.560;2022-09-06T15:31:54;26.60;54.40
43697;DHT22;29301;47.620;19.560;2022-09-06T15:34:22;26.60;54.30
43697;DHT22;29301;47.620;19.560;2022-09-06T15:36:49;26.60;54.20
43697;DHT22;29301;47.620;19.560;2022-09-06T15:39:15;26.60;54.20
43697;DHT22;29301;47.620;19.560;2022-09-06T15:41:41;26.50;54.30
43697;DHT22;29301;47.620;19.560;2022-09-06T15:44:12;26.60;54.70
43697;DHT22;29301;47.620;19.560;2022-09-06T15:49:20;26.40;54.70
43697;DHT22;29301;47.620;19.560;2022-09-06T15:51:46;26.30;55.00
43697;DHT22;29301;47.620;19.560;2022-09-06T15:54:14;26.20;55.10
43697;DHT22;29301;47.620;19.560;2022-09-06T15:56:40;26.20;55.50
43697;DHT22;29301;47.620;19.560;2022-09-06T15:59:06;26.10;55.70
43697;DHT22;29301;47.620;19.560;2022-09-06T16:01:33;26.10;56.00
43697;DHT22;29301;47.620;19.560;2022-09-06T16:04:00;26.10;56.10
43697;DHT22;29301;47.620;19.560;2022-09-06T16:06:39;26.10;56.10
43697;DHT22;29301;47.620;19.560;2022-09-06T16:09:10;26.00;56.30
43697;DHT22;29301;47.620;19.560;2022-09-06T16:11:36;26.00;56.40
43697;DHT22;29301;47.620;19.560;2022-09-06T16:14:04;25.90;56.30
43697;DHT22;29301;47.620;19.560;2022-09-06T16:16:30;25.90;56.40
43697;DHT22;29301;47.620;19.560;2022-09-06T16:18:57;26.00;56.60
43697;DHT22;29301;47.620;19.560;2022-09-06T16:21:26;25.90;57.20
43697;DHT22;29301;47.620;19.560;2022-09-06T16:24:19;25.70;59.90
43697;DHT22;29301;47.620;19.560;2022-09-06T16:26:45;25.50;61.20
43697;DHT22;29301;47.620;19.560;2022-09-06T16:29:13;25.30;62.10
43697;DHT22;29301;47.620;19.560;2022-09-06T16:31:39;25.20;63.40
43697;DHT22;29301;47.620;19.560;2022-09-06T16:34:05;25.20;65.30
43697;DHT22;29301;47.620;19.560;2022-09-06T16:36:32;25.10;69.20
43697;DHT22;29301;47.620;19.560;2022-09-06T16:38:57;24.90;74.40
43697;DHT22;29301;47.620;19.560;2022-09-06T16:41:43;24.70;77.10
43697;DHT22;29301;47.620;19.560;2022-09-06T16:44:12;24.40;82.10
43697;DHT22;29301;47.620;19.560;2022-09-06T16:46:41;24.20;86.00
43697;DHT22;29301;47.620;19.560;2022-09-06T16:49:07;24.10;87.40
43697;DHT22;29301;47.620;19.560;2022-09-06T16:51:33;24.10;87.70
43697;DHT22;29301;47.620;19.560;2022-09-06T16:53:59;23.90;86.30
43697;DHT22;29301;47.620;19.560;2022-09-06T16:56:27;23.80;87.20
43697;DHT22;29301;47.620;19.560;2022-09-06T16:58:56;23.50;89.60
43697;DHT22;29301;47.620;19.560;2022-09-06T17:01:22;23.20;91.00
43697;DHT22;29301;47.620;19.560;2022-09-06T17:03:49;23.10;91.60
43697;DHT22;29301;47.620;19.560;2022-09-06T17:06:15;23.00;91.20
43697;DHT22;29301;47.620;19.560;2022-09-06T17:08:41;23.00;91.80
43697;DHT22;29301;47.620;19.560;2022-09-06T17:11:13;23.00;91.00
43697;DHT22;29301;47.620;19.560;2022-09-06T17:13:39;23.10;91.50
43697;DHT22;29301;47.620;19.560;2022-09-06T17:16:06;23.10;91.20
43697;DHT22;29301;47.620;19.560;2022-09-06T17:18:51;23.10;91.60
43697;DHT22;29301;47.620;19.560;2022-09-06T17:21:19;23.10;91.70